createdAt,value
2019-04-07T00:00:59.760Z,77.17
2019-04-07T00:03:03.692Z,69.70
2019-04-07T00:05:13.066Z,104.58
2019-04-07T00:07:13.964Z,89.97
2019-04-07T00:09:17.658Z,77.03
2019-04-07T00:11:21.511Z,92.30
2019-04-07T00:13:25.904Z,90.50
2019-04-07T00:15:29.448Z,100.75
2019-04-07T00:17:32.916Z,109.50
2019-04-07T00:19:36.380Z,69.32
2019-04-07T00:21:39.920Z,68.55
2019-04-07T00:23:44.125Z,66.80
2019-04-07T00:25:47.989Z,67.00
2019-04-07T00:27:51.624Z,84.60
2019-04-07T00:29:55.477Z,258.05
2019-04-07T00:31:59.213Z,80.87
2019-04-07T00:34:02.791Z,99.37
2019-04-07T00:36:07.366Z,93.72
2019-04-07T00:38:11.169Z,257.48
2019-04-07T00:40:14.936Z,107.97
2019-04-07T00:42:18.556Z,110.83
2019-04-07T00:44:22.464Z,79.67
2019-04-07T00:46:26.048Z,81.67
2019-04-07T00:48:29.672Z,77.75
2019-04-07T00:50:33.296Z,87.78
2019-04-07T00:52:37.608Z,70.70
2019-04-07T00:54:41.117Z,59.95
2019-04-07T00:56:44.577Z,65.45
2019-04-07T00:58:49.133Z,55.60
2019-04-07T01:00:53.036Z,55.17
2019-04-07T01:02:57.553Z,59.60
2019-04-07T01:05:01.738Z,58.55
2019-04-07T01:07:05.628Z,56.58
2019-04-07T01:09:10.739Z,56.42
2019-04-07T01:11:14.240Z,56.45
2019-04-07T01:13:17.792Z,55.67
2019-04-07T01:15:21.434Z,57.35
2019-04-07T01:17:24.924Z,64.80
2019-04-07T01:19:28.952Z,57.95
2019-04-07T01:21:33.031Z,83.35
2019-04-07T01:23:36.600Z,88.67
2019-04-07T01:25:40.065Z,84.95
2019-04-07T01:27:43.972Z,84.80
2019-04-07T01:29:47.582Z,85.47
2019-04-07T01:31:52.605Z,87.95
2019-04-07T01:33:56.969Z,88.55
2019-04-07T01:36:00.839Z,90.12
2019-04-07T01:38:04.937Z,95.38
2019-04-07T01:40:09.098Z,89.22
2019-04-07T01:42:17.037Z,75.32
2019-04-07T01:44:34.385Z,76.22
2019-04-07T01:46:42.724Z,96.87
2019-04-07T01:48:48.321Z,131.70
2019-04-07T01:51:03.031Z,89.83
2019-04-07T01:53:08.862Z,102.20
2019-04-07T01:55:20.352Z,95.17
2019-04-07T01:57:28.922Z,126.70
2019-04-07T01:59:50.740Z,83.03
2019-04-07T02:02:02.103Z,130.95
2019-04-07T02:04:08.100Z,77.82
2019-04-07T02:06:16.614Z,76.67
2019-04-07T02:08:28.168Z,71.65
2019-04-07T02:10:45.895Z,70.90
2019-04-07T02:12:57.842Z,59.30
2019-04-07T02:15:12.686Z,128.72
2019-04-07T02:17:17.794Z,93.40
2019-04-07T02:19:29.428Z,88.27
2019-04-07T02:21:51.531Z,64.65
2019-04-07T02:24:12.861Z,81.12
2019-04-07T02:26:24.464Z,66.53
2019-04-07T02:28:44.857Z,95.57
2019-04-07T02:30:50.300Z,67.17
2019-04-07T02:33:10.835Z,87.45
2019-04-07T02:35:22.920Z,108.55
2019-04-07T02:37:44.476Z,115.08
2019-04-07T02:39:52.714Z,81.20
2019-04-07T02:42:15.120Z,302.15
2019-04-07T02:44:23.979Z,180.48
2019-04-07T02:46:29.228Z,355.77
2019-04-07T02:48:41.193Z,238.30
2019-04-07T02:50:52.864Z,244.22
2019-04-07T02:53:07.578Z,152.95
2019-04-07T02:55:26.568Z,81.28
2019-04-07T02:57:42.122Z,96.47
2019-04-07T02:59:48.130Z,101.07
2019-04-07T03:02:12.083Z,178.12
2019-04-07T03:04:24.505Z,68.25
2019-04-07T03:06:39.399Z,63.28
2019-04-07T03:08:39.655Z,65.60
2019-04-07T03:10:47.570Z,60.73
2019-04-07T03:12:53.158Z,55.38
2019-04-07T03:15:13.359Z,51.50
2019-04-07T03:17:25.634Z,51.08
2019-04-07T03:19:42.978Z,50.78
2019-04-07T03:21:48.375Z,53.52
2019-04-07T03:23:56.728Z,50.38
2019-04-07T03:26:08.091Z,45.83
2019-04-07T03:28:16.211Z,50.48
2019-04-07T03:30:25.704Z,48.38
2019-04-07T03:32:32.961Z,51.33
2019-04-07T03:34:40.063Z,72.45
2019-04-07T03:37:13.090Z,66.02
2019-04-07T03:39:04.031Z,45.92
2019-04-07T03:41:09.762Z,59.40
2019-04-07T03:43:15.402Z,56.35
2019-04-07T03:45:32.935Z,62.55
2019-04-07T03:47:48.009Z,52.85
2019-04-07T03:49:56.998Z,67.22
2019-04-07T03:52:14.126Z,43.42
2019-04-07T03:54:25.608Z,92.60
2019-04-07T03:56:34.287Z,266.42
2019-04-07T03:58:42.937Z,110.03
2019-04-07T04:01:19.748Z,62.30
2019-04-07T04:03:25.640Z,47.25
2019-04-07T04:05:31.093Z,44.67
2019-04-07T04:07:37.253Z,43.45
2019-04-07T04:09:44.077Z,44.27
2019-04-07T04:12:07.212Z,39.35
2019-04-07T04:14:13.371Z,37.65
2019-04-07T04:16:18.058Z,38.28
2019-04-07T04:18:22.496Z,48.55
2019-04-07T04:20:26.619Z,78.67
2019-04-07T04:22:30.773Z,51.13
2019-04-07T04:24:35.030Z,54.30
2019-04-07T04:26:39.324Z,49.50
2019-04-07T04:28:42.973Z,51.00
2019-04-07T04:30:46.621Z,45.55
2019-04-07T04:32:50.153Z,96.60
2019-04-07T04:34:54.668Z,98.33
2019-04-07T04:36:58.254Z,58.92
2019-04-07T04:39:01.890Z,53.60
2019-04-07T04:41:05.428Z,43.45
2019-04-07T04:43:10.356Z,43.52
2019-04-07T04:45:15.783Z,69.03
2019-04-07T04:47:20.596Z,39.65
2019-04-07T04:49:24.427Z,41.60
2019-04-07T04:51:29.399Z,39.95
2019-04-07T04:53:33.358Z,47.17
2019-04-07T04:55:37.249Z,33.83
2019-04-07T04:57:40.954Z,30.52
2019-04-07T04:59:44.712Z,32.17
2019-04-07T05:01:48.798Z,32.42
2019-04-07T05:03:52.551Z,32.05
2019-04-07T05:05:56.331Z,37.10
2019-04-07T05:08:03.513Z,39.50
2019-04-07T05:10:06.862Z,34.67
2019-04-07T05:12:10.412Z,33.10
2019-04-07T05:14:14.095Z,34.35
2019-04-07T05:16:18.457Z,32.93
2019-04-07T05:18:22.266Z,35.17
2019-04-07T05:20:26.792Z,34.03
2019-04-07T05:22:30.766Z,35.73
2019-04-07T05:24:35.068Z,37.15
2019-04-07T05:26:38.888Z,35.33
2019-04-07T05:28:42.687Z,37.83
2019-04-07T05:30:46.930Z,35.70
2019-04-07T05:32:50.805Z,34.73
2019-04-07T05:34:54.507Z,35.70
2019-04-07T05:36:58.695Z,38.50
2019-04-07T05:39:02.491Z,53.48
2019-04-07T05:41:06.507Z,55.33
2019-04-07T05:43:10.673Z,32.17
2019-04-07T05:45:14.989Z,33.58
2019-04-07T05:47:19.035Z,91.10
2019-04-07T05:49:24.206Z,83.60
2019-04-07T05:51:30.155Z,73.28
2019-04-07T05:53:33.396Z,42.53
2019-04-07T05:55:37.232Z,37.95
2019-04-07T05:57:40.771Z,37.73
2019-04-07T05:59:45.023Z,38.40
2019-04-07T06:01:51.660Z,49.40
2019-04-07T06:03:54.550Z,46.33
2019-04-07T06:05:58.123Z,48.63
2019-04-07T06:08:18.870Z,43.98
2019-04-07T06:10:08.111Z,41.40
2019-04-07T06:12:12.053Z,43.33
2019-04-07T06:14:16.732Z,45.08
2019-04-07T06:16:22.351Z,39.67
2019-04-07T06:18:31.328Z,38.50
2019-04-07T06:20:32.358Z,35.33
2019-04-07T06:22:36.910Z,37.42
2019-04-07T06:24:40.693Z,77.22
2019-04-07T06:26:48.137Z,68.17
2019-04-07T06:28:54.571Z,66.30
2019-04-07T06:30:55.300Z,52.90
2019-04-07T06:32:58.774Z,50.58
2019-04-07T06:35:02.758Z,37.00
2019-04-07T06:37:06.856Z,79.47
2019-04-07T06:39:10.781Z,49.30
2019-04-07T06:41:14.317Z,51.45
2019-04-07T06:43:18.711Z,69.42
2019-04-07T06:45:24.494Z,58.35
2019-04-07T06:47:31.998Z,36.70
2019-04-07T06:49:37.268Z,45.52
2019-04-07T06:52:02.948Z,46.92
2019-04-07T06:54:10.135Z,32.98
2019-04-07T06:56:15.436Z,33.98
2019-04-07T06:58:23.069Z,32.70
2019-04-07T07:00:44.544Z,31.05
2019-04-07T07:02:55.608Z,54.88
2019-04-07T07:05:06.833Z,60.85
2019-04-07T07:07:13.288Z,35.65
2019-04-07T07:09:25.519Z,78.22
2019-04-07T07:11:45.240Z,30.77
2019-04-07T07:13:53.296Z,89.72
2019-04-07T07:16:14.551Z,326.92
2019-04-07T07:18:32.273Z,75.50
2019-04-07T07:20:47.344Z,203.47
2019-04-07T07:22:52.711Z,154.80
2019-04-07T07:24:59.296Z,76.77
2019-04-07T07:27:02.661Z,31.95
2019-04-07T07:29:06.953Z,25.80
2019-04-07T07:31:11.574Z,23.55
2019-04-07T07:33:15.188Z,24.15
2019-04-07T07:35:19.048Z,22.70
2019-04-07T07:37:25.387Z,25.05
2019-04-07T07:39:28.433Z,25.50
2019-04-07T07:41:32.038Z,25.62
2019-04-07T07:43:35.942Z,19.95
2019-04-07T07:45:42.977Z,21.45
2019-04-07T07:47:45.064Z,27.17
2019-04-07T07:49:48.608Z,26.30
2019-04-07T07:51:54.256Z,29.12
2019-04-07T07:54:00.552Z,23.12
2019-04-07T07:56:08.426Z,24.55
2019-04-07T07:58:09.329Z,21.37
2019-04-07T08:00:15.560Z,20.40
2019-04-07T08:02:20.758Z,19.35
2019-04-07T08:04:26.509Z,19.67
2019-04-07T08:06:30.468Z,18.48
2019-04-07T08:08:34.290Z,18.32
2019-04-07T08:10:38.334Z,18.07
2019-04-07T08:12:43.705Z,20.75
2019-04-07T08:14:50.588Z,21.52
2019-04-07T08:16:53.114Z,27.27
2019-04-07T08:18:59.209Z,21.65
2019-04-07T08:21:03.314Z,31.27
2019-04-07T08:23:06.910Z,23.70
2019-04-07T08:25:10.948Z,17.52
2019-04-07T08:27:14.984Z,25.08
2019-04-07T08:29:18.957Z,86.57
2019-04-07T08:31:24.094Z,21.42
2019-04-07T08:33:29.546Z,18.02
2019-04-07T08:35:35.776Z,21.15
2019-04-07T08:37:39.322Z,17.77
2019-04-07T08:39:43.211Z,17.65
2019-04-07T08:41:47.235Z,19.62
2019-04-07T08:43:54.105Z,19.60
2019-04-07T08:45:56.709Z,53.87
2019-04-07T08:48:00.779Z,21.55
2019-04-07T08:50:07.271Z,28.35
2019-04-07T08:52:12.346Z,19.27
2019-04-07T08:54:18.275Z,18.80
2019-04-07T08:56:24.821Z,18.80
2019-04-07T08:58:28.967Z,18.15
2019-04-07T09:00:33.619Z,18.02
2019-04-07T09:02:37.186Z,18.67
2019-04-07T09:04:41.294Z,16.30
2019-04-07T09:06:45.029Z,17.32
2019-04-07T09:08:48.612Z,16.77
2019-04-07T09:10:56.990Z,17.55
2019-04-07T09:13:03.055Z,17.37
2019-04-07T09:15:09.511Z,17.90
2019-04-07T09:17:23.267Z,17.92
2019-04-07T09:19:23.780Z,18.98
2019-04-07T09:21:37.251Z,17.82
2019-04-07T09:23:44.685Z,19.82
2019-04-07T09:25:53.141Z,17.87
2019-04-07T09:28:03.956Z,16.67
2019-04-07T09:30:19.665Z,16.17
2019-04-07T09:32:27.784Z,17.62
2019-04-07T09:34:35.625Z,18.73
2019-04-07T09:36:41.941Z,19.30
2019-04-07T09:39:01.866Z,20.15
2019-04-07T09:41:21.566Z,21.40
2019-04-07T09:43:25.194Z,20.57
2019-04-07T09:45:45.870Z,19.25
2019-04-07T09:47:51.724Z,16.52
2019-04-07T09:50:03.583Z,13.50
2019-04-07T09:52:11.853Z,13.00
2019-04-07T09:54:23.284Z,17.45
2019-04-07T09:56:32.952Z,12.65
2019-04-07T09:58:50.309Z,12.43
2019-04-07T10:00:57.717Z,12.55
2019-04-07T10:03:14.896Z,15.40
2019-04-07T10:05:18.692Z,14.25
2019-04-07T10:07:24.018Z,11.22
2019-04-07T10:09:38.626Z,10.43
2019-04-07T10:11:44.192Z,10.32
2019-04-07T10:14:06.359Z,10.08
2019-04-07T10:16:21.175Z,10.08
2019-04-07T10:18:32.446Z,12.37
2019-04-07T10:20:42.795Z,9.20
2019-04-07T10:22:49.068Z,9.60
2019-04-07T10:24:54.416Z,10.58
2019-04-07T10:27:09.301Z,10.90
2019-04-07T10:29:15.408Z,11.30
2019-04-07T10:31:37.806Z,10.65
2019-04-07T10:33:47.060Z,10.80
2019-04-07T10:36:01.925Z,12.03
2019-04-07T10:38:10.994Z,11.45
2019-04-07T10:40:22.211Z,12.33
2019-04-07T10:42:43.676Z,11.38
2019-04-07T10:45:00.712Z,13.60
2019-04-07T10:47:22.097Z,10.53
2019-04-07T10:49:30.027Z,11.93
2019-04-07T10:51:36.495Z,12.37
2019-04-07T10:53:41.965Z,12.40
2019-04-07T10:55:50.820Z,11.73
2019-04-07T10:57:56.060Z,10.98
2019-04-07T11:00:11.020Z,12.33
2019-04-07T11:02:22.632Z,11.55
2019-04-07T11:04:44.871Z,13.68
2019-04-07T11:06:53.518Z,11.12
2019-04-07T11:09:00.235Z,11.85
2019-04-07T11:11:22.250Z,9.75
2019-04-07T11:13:36.966Z,9.73
2019-04-07T11:15:59.210Z,11.53
2019-04-07T11:18:04.379Z,10.03
2019-04-07T11:20:13.339Z,10.53
2019-04-07T11:22:18.868Z,11.03
2019-04-07T11:24:24.076Z,10.60
2019-04-07T11:26:36.298Z,10.75
2019-04-07T11:28:48.048Z,9.93
2019-04-07T11:30:56.325Z,9.90
2019-04-07T11:33:01.848Z,9.48
2019-04-07T11:35:26.340Z,8.98
2019-04-07T11:37:33.497Z,9.70
2019-04-07T11:39:42.501Z,11.10
2019-04-07T11:41:53.341Z,10.13
2019-04-07T11:44:02.012Z,11.15
2019-04-07T11:46:10.870Z,10.18
2019-04-07T11:48:16.167Z,9.78
2019-04-07T11:50:38.007Z,10.15
2019-04-07T11:52:43.192Z,10.65
2019-04-07T11:54:49.302Z,10.40
2019-04-07T11:56:58.876Z,9.10
2019-04-07T11:59:14.658Z,13.20
2019-04-07T12:01:32.820Z,8.55
2019-04-07T12:03:38.697Z,10.38
2019-04-07T12:05:59.950Z,8.68
2019-04-07T12:08:06.078Z,10.72
2019-04-07T12:10:28.924Z,12.95
2019-04-07T12:12:49.867Z,11.53
2019-04-07T12:15:14.219Z,10.23
2019-04-07T12:17:33.967Z,8.58
2019-04-07T12:19:47.329Z,8.13
2019-04-07T12:21:55.983Z,9.33
2019-04-07T12:24:10.666Z,7.90
2019-04-07T12:26:38.034Z,9.10
2019-04-07T12:28:47.583Z,9.03
2019-04-07T12:30:53.422Z,9.10
2019-04-07T12:33:05.059Z,8.30
2019-04-07T12:35:09.216Z,9.75
2019-04-07T12:37:18.763Z,9.93
2019-04-07T12:39:33.846Z,9.20
2019-04-07T12:41:44.686Z,9.48
2019-04-07T12:43:56.195Z,8.28
2019-04-07T12:46:02.354Z,9.00
2019-04-07T12:48:23.114Z,9.40
2019-04-07T12:50:37.806Z,8.98
2019-04-07T12:52:48.669Z,8.20
2019-04-07T12:55:16.036Z,9.33
2019-04-07T12:57:30.809Z,9.50
2019-04-07T12:59:52.912Z,10.23
2019-04-07T13:02:09.248Z,10.45
2019-04-07T13:04:20.484Z,10.30
2019-04-07T13:06:25.592Z,9.80
2019-04-07T13:08:33.840Z,11.15
2019-04-07T13:10:54.760Z,10.93
2019-04-07T13:15:30.297Z,9.63
2019-04-07T13:17:55.230Z,8.58
2019-04-07T13:20:09.593Z,9.73
2019-04-07T13:22:18.318Z,10.55
2019-04-07T13:24:34.937Z,9.50
2019-04-07T13:26:48.865Z,8.93
2019-04-07T13:29:00.695Z,8.60
2019-04-07T13:31:24.434Z,9.20
2019-04-07T13:33:46.807Z,10.00
2019-04-07T13:36:01.759Z,9.25
2019-04-07T13:38:17.502Z,8.55
2019-04-07T13:40:42.653Z,9.05
2019-04-07T13:42:58.910Z,8.60
2019-04-07T13:45:04.829Z,10.03
2019-04-07T13:47:10.662Z,9.63
2019-04-07T13:49:28.920Z,9.95
2019-04-07T13:51:34.725Z,9.63
2019-04-07T13:53:41.049Z,9.63
2019-04-07T13:56:02.924Z,9.65
2019-04-07T13:58:17.980Z,9.25
2019-04-07T14:00:32.772Z,9.68
2019-04-07T14:02:50.572Z,9.83
2019-04-07T14:05:05.250Z,9.78
2019-04-07T14:07:16.948Z,10.38
2019-04-07T14:09:31.464Z,13.18
2019-04-07T14:12:03.147Z,11.43
2019-04-07T14:13:57.206Z,12.95
2019-04-07T14:16:06.097Z,9.93
2019-04-07T14:18:14.387Z,9.43
2019-04-07T14:20:26.827Z,9.25
2019-04-07T14:22:50.384Z,10.20
2019-04-07T14:24:56.914Z,9.18
2019-04-07T14:27:18.660Z,9.30
2019-04-07T14:29:24.279Z,11.53
2019-04-07T14:31:29.782Z,10.38
2019-04-07T14:33:50.144Z,10.70
2019-04-07T14:35:58.442Z,10.93
2019-04-07T14:38:21.253Z,9.30
2019-04-07T14:40:32.241Z,9.75
2019-04-07T14:42:44.567Z,10.75
2019-04-07T14:44:51.144Z,9.35
2019-04-07T14:47:14.110Z,9.60
2019-04-07T14:49:35.786Z,10.45
2019-04-07T14:51:42.745Z,11.83
2019-04-07T14:54:03.117Z,10.78
2019-04-07T14:56:23.844Z,12.05
2019-04-07T14:58:42.371Z,11.25
2019-04-07T15:01:01.871Z,10.08
2019-04-07T15:03:02.554Z,11.45
2019-04-07T15:05:08.331Z,10.82
2019-04-07T15:07:30.317Z,10.78
2019-04-07T15:09:36.037Z,11.20
2019-04-07T15:11:42.271Z,9.88
2019-04-07T15:13:45.863Z,9.33
2019-04-07T15:15:51.344Z,10.13
2019-04-07T15:17:55.892Z,10.30
2019-04-07T15:19:59.625Z,11.28
2019-04-07T15:22:04.292Z,9.85
2019-04-07T15:24:08.618Z,10.90
2019-04-07T15:26:15.652Z,10.50
2019-04-07T15:28:19.466Z,10.43
2019-04-07T15:30:24.234Z,11.18
2019-04-07T15:32:30.003Z,13.40
2019-04-07T15:34:34.309Z,10.50
2019-04-07T15:36:38.605Z,10.10
2019-04-07T15:38:42.910Z,10.82
2019-04-07T15:40:47.085Z,10.10
2019-04-07T15:42:52.513Z,11.00
2019-04-07T15:44:57.235Z,9.98
2019-04-07T15:47:01.776Z,9.13
2019-04-07T15:51:13.288Z,10.38
2019-04-07T15:53:17.740Z,10.00
2019-04-07T15:55:26.361Z,12.18
2019-04-07T15:57:29.013Z,15.40
2019-04-07T15:59:33.060Z,11.75
2019-04-07T16:01:38.673Z,17.05
2019-04-07T16:03:43.133Z,17.62
2019-04-07T16:05:47.509Z,11.73
2019-04-07T16:07:53.340Z,13.55
2019-04-07T16:09:58.086Z,24.25
2019-04-07T16:12:01.844Z,9.90
2019-04-07T16:14:12.487Z,10.95
2019-04-07T16:16:11.325Z,12.37
2019-04-07T16:18:14.936Z,12.28
2019-04-07T16:20:24.754Z,19.48
2019-04-07T16:22:28.913Z,10.78
2019-04-07T16:24:32.762Z,14.18
2019-04-07T16:26:37.402Z,33.20
2019-04-07T16:28:45.969Z,26.02
2019-04-07T16:30:49.568Z,87.78
2019-04-07T16:32:55.110Z,48.28
2019-04-07T16:34:59.451Z,55.92
2019-04-07T16:37:04.872Z,67.42
2019-04-07T16:39:10.165Z,168.25
2019-04-07T16:41:14.161Z,90.95
2019-04-07T16:43:19.061Z,125.92
2019-04-07T16:45:23.365Z,38.08
2019-04-07T16:47:32.765Z,21.40
2019-04-07T16:49:32.691Z,56.18
2019-04-07T16:51:36.471Z,142.80
2019-04-07T16:53:42.770Z,34.70
2019-04-07T16:55:48.986Z,31.62
2019-04-07T16:57:50.947Z,86.72
2019-04-07T16:59:54.857Z,87.27
2019-04-07T17:01:59.132Z,103.17
2019-04-07T17:04:03.276Z,152.78
2019-04-07T17:06:07.403Z,119.40
2019-04-07T17:08:10.948Z,97.10
2019-04-07T17:10:14.689Z,80.90
2019-04-07T17:12:18.552Z,44.23
2019-04-07T17:14:22.553Z,95.80
2019-04-07T17:16:26.874Z,32.00
2019-04-07T17:18:39.158Z,29.92
2019-04-07T17:20:44.372Z,23.35
2019-04-07T17:22:49.341Z,57.20
2019-04-07T17:24:53.237Z,45.10
2019-04-07T17:26:58.103Z,65.03
2019-04-07T17:29:02.118Z,68.62
2019-04-07T17:31:06.330Z,130.22
2019-04-07T17:33:10.189Z,132.85
2019-04-07T17:35:17.454Z,34.30
2019-04-07T17:37:21.790Z,23.00
2019-04-07T17:39:31.492Z,32.75
2019-04-07T17:41:35.915Z,60.52
2019-04-07T17:44:00.633Z,67.60
2019-04-07T17:46:08.421Z,34.92
2019-04-07T17:48:17.108Z,24.02
2019-04-07T17:50:28.065Z,38.42
2019-04-07T17:52:50.253Z,64.42
2019-04-07T17:55:03.030Z,68.17
2019-04-07T17:57:15.222Z,83.42
2019-04-07T17:59:39.717Z,85.55
2019-04-07T18:02:01.193Z,93.40
2019-04-07T18:04:13.980Z,82.08
2019-04-07T18:06:18.121Z,55.12
2019-04-07T18:08:23.885Z,55.52
2019-04-07T18:10:39.132Z,50.52
2019-04-07T18:12:47.855Z,60.88
2019-04-07T18:14:58.547Z,51.90
2019-04-07T18:17:04.483Z,47.85
2019-04-07T18:19:15.666Z,43.38
2019-04-07T18:21:21.176Z,59.75
2019-04-07T18:23:38.311Z,50.25
2019-04-07T18:25:53.563Z,50.17
2019-04-07T18:27:59.927Z,46.98
2019-04-07T18:30:14.581Z,56.73
2019-04-07T18:32:37.421Z,73.62
2019-04-07T18:34:47.112Z,83.25
2019-04-07T18:36:55.381Z,90.12
2019-04-07T18:39:07.192Z,83.95
2019-04-07T18:41:13.321Z,60.23
2019-04-07T18:43:20.177Z,64.15
2019-04-07T18:45:31.960Z,63.45
2019-04-07T18:47:37.206Z,70.90
2019-04-07T18:50:04.021Z,87.90
2019-04-07T18:52:19.806Z,65.15
2019-04-07T18:54:30.778Z,67.50
2019-04-07T18:56:54.392Z,60.83
2019-04-07T18:58:59.165Z,114.00
2019-04-07T19:01:18.657Z,95.07
2019-04-07T19:03:36.226Z,125.78
2019-04-07T19:06:02.161Z,68.55
2019-04-07T19:08:12.660Z,53.98
2019-04-07T19:10:23.761Z,55.60
2019-04-07T19:12:28.032Z,73.25
2019-04-07T19:14:47.249Z,53.23
2019-04-07T19:17:05.075Z,48.02
2019-04-07T19:19:27.798Z,66.92
2019-04-07T19:21:34.764Z,108.67
2019-04-07T19:23:58.842Z,70.28
2019-04-07T19:26:06.905Z,94.92
2019-04-07T19:28:18.850Z,64.27
2019-04-07T19:30:26.573Z,57.73
2019-04-07T19:32:46.599Z,46.10
2019-04-07T19:35:02.590Z,33.98
2019-04-07T19:37:24.076Z,28.02
2019-04-07T19:39:30.654Z,51.30
2019-04-07T19:41:39.293Z,65.78
2019-04-07T19:44:03.945Z,100.42
2019-04-07T19:46:09.243Z,81.67
2019-04-07T19:48:15.491Z,51.58
2019-04-07T19:50:37.430Z,45.38
2019-04-07T19:52:54.924Z,52.43
2019-04-07T19:55:16.358Z,42.27
2019-04-07T19:57:27.854Z,41.98
2019-04-07T19:59:39.240Z,51.70
2019-04-07T20:01:46.569Z,40.28
2019-04-07T20:03:57.546Z,35.65
2019-04-07T20:06:09.244Z,31.52
2019-04-07T20:08:34.902Z,66.62
2019-04-07T20:10:44.705Z,46.50
2019-04-07T20:12:59.021Z,27.60
2019-04-07T20:15:15.244Z,53.98
2019-04-07T20:17:22.366Z,48.10
2019-04-07T20:19:34.899Z,32.58
2019-04-07T20:21:41.159Z,35.28
2019-04-07T20:23:52.063Z,30.60
2019-04-07T20:26:03.760Z,37.73
2019-04-07T20:28:11.785Z,46.77
2019-04-07T20:30:23.353Z,52.15
2019-04-07T20:32:29.409Z,50.40
2019-04-07T20:34:41.254Z,53.10
2019-04-07T20:36:54.889Z,37.28
2019-04-07T20:45:03.633Z,45.92
2019-04-07T20:53:30.170Z,30.97
2019-04-07T20:55:49.510Z,33.02
2019-04-07T20:58:16.287Z,43.63
2019-04-07T21:00:11.124Z,41.40
2019-04-07T21:02:34.712Z,37.55
2019-04-07T21:04:45.251Z,32.20
2019-04-07T21:06:54.073Z,29.48
2019-04-07T21:15:41.230Z,17.57
2019-04-07T21:17:50.215Z,17.10
2019-04-07T21:23:43.328Z,22.42
2019-04-07T21:25:48.966Z,25.95
2019-04-07T21:27:54.797Z,36.53
2019-04-07T21:33:26.966Z,25.37
2019-04-07T21:35:41.125Z,19.02
2019-04-07T21:37:58.612Z,22.95
2019-04-07T21:40:15.923Z,33.40
2019-04-07T21:42:38.094Z,28.92
2019-04-07T21:44:57.375Z,47.33
2019-04-07T21:47:06.338Z,35.28
2019-04-07T21:49:11.897Z,59.45
2019-04-07T21:51:29.234Z,57.23
2019-04-07T21:53:40.981Z,58.92
2019-04-07T21:55:58.829Z,56.65
2019-04-07T21:58:23.219Z,56.00
2019-04-07T22:00:32.552Z,138.47
2019-04-07T22:02:47.849Z,85.35
2019-04-07T22:05:05.405Z,61.48
2019-04-07T22:07:11.229Z,55.60
2019-04-07T22:09:18.019Z,54.13
2019-04-07T22:11:24.738Z,48.15
2019-04-07T22:13:28.535Z,46.48
2019-04-07T22:15:42.988Z,41.60
2019-04-07T22:17:39.265Z,32.95
2019-04-07T22:19:45.295Z,29.57
2019-04-07T22:21:48.334Z,29.00
2019-04-07T22:23:51.958Z,26.62
2019-04-07T22:25:55.942Z,15.40
2019-04-07T22:28:00.422Z,13.32
2019-04-07T22:30:07.760Z,12.30
2019-04-07T22:32:11.692Z,21.37
2019-04-07T22:34:16.416Z,19.80
2019-04-07T22:36:20.116Z,16.82
2019-04-07T22:38:23.904Z,19.77
2019-04-07T22:40:32.197Z,15.72
2019-04-07T22:42:33.318Z,7.95
2019-04-07T22:44:37.670Z,6.28
2019-04-07T22:46:41.657Z,17.17
2019-04-07T22:48:45.922Z,12.58
2019-04-07T22:50:49.748Z,14.58
2019-04-07T22:52:53.424Z,18.00
2019-04-07T22:54:58.943Z,25.52
2019-04-07T22:57:02.837Z,15.72
2019-04-07T22:59:08.703Z,15.53
2019-04-07T23:01:11.913Z,17.85
2019-04-07T23:03:15.641Z,23.70
2019-04-07T23:05:19.542Z,33.73
2019-04-07T23:07:23.458Z,32.30
2019-04-07T23:09:27.964Z,23.45
2019-04-07T23:11:32.024Z,16.48
2019-04-07T23:13:35.652Z,18.37
2019-04-07T23:15:44.332Z,18.15
2019-04-07T23:17:44.653Z,18.60
2019-04-07T23:19:49.000Z,15.93
2019-04-07T23:21:53.432Z,14.23
2019-04-07T23:23:57.709Z,15.72
2019-04-07T23:26:01.987Z,16.75
2019-04-07T23:28:06.264Z,9.90
2019-04-07T23:30:11.177Z,7.47
2019-04-07T23:32:14.700Z,8.23
2019-04-07T23:34:19.110Z,11.90
2019-04-07T23:36:22.640Z,12.75
2019-04-07T23:38:26.175Z,18.02
2019-04-07T23:40:30.199Z,17.48
2019-04-07T23:42:33.808Z,16.67
2019-04-07T23:44:37.416Z,17.02
2019-04-07T23:46:41.408Z,16.35
2019-04-07T23:48:45.597Z,14.18
2019-04-07T23:50:49.845Z,13.40
2019-04-07T23:52:53.962Z,15.72
2019-04-07T23:54:57.487Z,21.17
2019-04-07T23:57:00.952Z,25.37
2019-04-07T23:59:06.158Z,22.70
